Time;durP1;ratioP1;P1;durP2;ratioP2;P2;SDS_P1;SDS_P2;PMS_P1;PMS_P2;Temp;Humidity;BMP_temperature;BMP_pressure;BME280_temperature;BME280_humidity;BME280_pressure;Samples;Min_cycle;Max_cycle;Signal;HPM_P1;HPM_P2
2023/08/05 00:01:41;;;;;;;9.85;6.90;;;;;;;;;;6255842;28;20075;-77
2023/08/05 00:04:44;;;;;;;7.72;6.18;;;;;;;;;;6258263;28;20122;-80
2023/08/05 00:07:45;;;;;;;11.90;6.90;;;;;;;;;;6254271;28;20155;-79
2023/08/05 00:10:47;;;;;;;9.63;6.93;;;;;;;;;;6258629;28;20448;-78
2023/08/05 00:13:49;;;;;;;9.27;6.57;;;;;;;;;;6256742;28;20049;-79
2023/08/05 00:16:50;;;;;;;10.10;6.68;;;;;;;;;;6243697;28;20530;-78
2023/08/05 00:19:53;;;;;;;9.07;6.85;;;;;;;;;;6257902;28;20084;-77
2023/08/05 00:22:55;;;;;;;8.63;6.55;;;;;;;;;;6256342;28;20047;-76
2023/08/05 00:25:56;;;;;;;11.15;6.07;;;;;;;;;;6258282;28;20123;-78
2023/08/05 00:28:58;;;;;;;8.52;6.28;;;;;;;;;;6256778;28;20065;-79
2023/08/05 00:31:59;;;;;;;10.40;6.28;;;;;;;;;;6254745;28;20045;-79
2023/08/05 00:35:05;;;;;;;7.78;6.15;;;;;;;;;;6223929;28;20052;-77
2023/08/05 00:38:06;;;;;;;6.72;5.63;;;;;;;;;;6239072;28;20049;-79
2023/08/05 00:41:08;;;;;;;8.25;6.40;;;;;;;;;;6256379;28;20068;-79
2023/08/05 00:44:10;;;;;;;9.65;6.55;;;;;;;;;;6256390;28;20048;-79
2023/08/05 00:47:12;;;;;;;8.65;6.50;;;;;;;;;;6260338;28;20049;-79
2023/08/05 00:50:14;;;;;;;9.80;6.60;;;;;;;;;;6259515;28;20064;-80
2023/08/05 00:53:17;;;;;;;9.95;6.57;;;;;;;;;;6253944;28;20092;-80
2023/08/05 00:56:19;;;;;;;10.02;7.00;;;;;;;;;;6224442;28;20087;-78
2023/08/05 00:59:20;;;;;;;8.85;6.32;;;;;;;;;;6258051;28;20065;-78
2023/08/05 01:02:22;;;;;;;8.18;6.55;;;;;;;;;;6253897;28;20045;-80
2023/08/05 01:05:24;;;;;;;7.90;5.90;;;;;;;;;;6258025;28;20427;-79
2023/08/05 01:08:27;;;;;;;9.80;6.18;;;;;;;;;;6246616;28;20041;-80
2023/08/05 01:11:29;;;;;;;9.30;6.88;;;;;;;;;;6247419;28;20056;-78
2023/08/05 01:14:31;;;;;;;11.27;7.57;;;;;;;;;;6258962;28;20049;-76
2023/08/05 01:17:33;;;;;;;9.43;7.07;;;;;;;;;;6258061;28;20049;-77
2023/08/05 01:20:45;;;;;;;7.43;6.13;;;;;;;;;;6267497;28;20055;-79
2023/08/05 01:24:08;;;;;;;10.75;7.03;;;;;;;;;;6258296;28;20056;-79
2023/08/05 01:27:10;;;;;;;8.30;6.35;;;;;;;;;;6258741;28;20544;-78
2023/08/05 01:30:11;;;;;;;10.98;7.07;;;;;;;;;;6255857;28;20052;-78
2023/08/05 01:33:14;;;;;;;8.63;6.47;;;;;;;;;;6260306;28;20099;-77
2023/08/05 01:36:20;;;;;;;11.73;6.90;;;;;;;;;;6238787;28;20076;-79
2023/08/05 01:39:22;;;;;;;8.32;6.20;;;;;;;;;;6235846;28;20060;-77
2023/08/05 01:42:24;;;;;;;7.55;5.80;;;;;;;;;;6256058;28;20048;-78
2023/08/05 01:45:25;;;;;;;9.73;6.70;;;;;;;;;;6228410;28;20037;-80
2023/08/05 01:48:27;;;;;;;10.75;7.25;;;;;;;;;;6256394;28;20056;-79
2023/08/05 01:51:29;;;;;;;12.40;8.15;;;;;;;;;;6255527;28;20045;-78
2023/08/05 01:54:30;;;;;;;15.73;8.35;;;;;;;;;;6240356;28;20060;-79
2023/08/05 01:57:32;;;;;;;13.30;8.55;;;;;;;;;;6254131;28;20045;-78
2023/08/05 02:00:34;;;;;;;14.48;8.38;;;;;;;;;;6253957;28;20049;-78
2023/08/05 02:03:35;;;;;;;13.70;8.30;;;;;;;;;;6256805;28;20056;-78
2023/08/05 02:06:37;;;;;;;15.02;8.45;;;;;;;;;;6251521;28;20049;-80
2023/08/05 02:09:39;;;;;;;18.30;8.75;;;;;;;;;;6240794;28;20055;-79
2023/08/05 02:12:41;;;;;;;12.82;8.60;;;;;;;;;;6245310;28;20083;-76
2023/08/05 02:15:42;;;;;;;15.32;8.23;;;;;;;;;;6235674;28;20118;-78
2023/08/05 02:18:45;;;;;;;13.43;8.48;;;;;;;;;;6250843;28;20041;-76
2023/08/05 02:21:47;;;;;;;14.25;7.82;;;;;;;;;;6254710;28;20044;-79
2023/08/05 02:24:48;;;;;;;11.23;7.38;;;;;;;;;;6240299;28;20044;-78
2023/08/05 02:27:50;;;;;;;13.77;7.43;;;;;;;;;;6251399;28;20037;-78
2023/08/05 02:30:52;;;;;;;13.27;7.90;;;;;;;;;;6250989;28;20040;-77
2023/08/05 02:33:53;;;;;;;13.38;6.50;;;;;;;;;;6254112;28;20055;-77
2023/08/05 02:36:55;;;;;;;9.48;6.97;;;;;;;;;;6239336;28;20048;-79
2023/08/05 02:39:56;;;;;;;9.75;6.47;;;;;;;;;;6230445;28;20042;-80
2023/08/05 02:42:58;;;;;;;11.82;6.68;;;;;;;;;;6239464;28;20048;-79
2023/08/05 02:46:00;;;;;;;9.88;6.63;;;;;;;;;;6253384;28;20095;-77
2023/08/05 02:49:02;;;;;;;10.13;6.93;;;;;;;;;;6239068;28;20507;-77
2023/08/05 02:52:04;;;;;;;12.57;7.95;;;;;;;;;;6247631;28;20060;-78
2023/08/05 02:55:06;;;;;;;17.48;8.57;;;;;;;;;;6251495;28;20045;-78
2023/08/05 02:58:08;;;;;;;19.48;8.70;;;;;;;;;;6238687;28;20048;-78
2023/08/05 03:01:09;;;;;;;18.27;9.05;;;;;;;;;;6251074;28;20050;-79
2023/08/05 03:04:11;;;;;;;12.68;7.80;;;;;;;;;;6253611;28;20053;-78
2023/08/05 03:07:13;;;;;;;12.35;8.30;;;;;;;;;;6257595;28;20048;-77
2023/08/05 03:10:14;;;;;;;13.57;8.82;;;;;;;;;;6242063;28;20049;-77
2023/08/05 03:13:16;;;;;;;11.63;8.05;;;;;;;;;;6249813;28;20181;-80
2023/08/05 03:16:20;;;;;;;18.50;8.52;;;;;;;;;;6256146;28;20049;-77
2023/08/05 03:19:35;;;;;;;17.33;8.27;;;;;;;;;;6239310;28;20046;-77
2023/08/05 03:22:37;;;;;;;23.48;8.23;;;;;;;;;;6251268;28;20555;-77
2023/08/05 03:25:39;;;;;;;12.48;7.70;;;;;;;;;;6234157;28;20044;-78
2023/08/05 03:28:42;;;;;;;16.55;8.65;;;;;;;;;;6254994;28;20041;-77
2023/08/05 03:31:44;;;;;;;24.15;8.02;;;;;;;;;;6236136;28;20131;-79
2023/08/05 03:34:47;;;;;;;22.90;8.90;;;;;;;;;;6255070;28;20098;-79
2023/08/05 03:37:49;;;;;;;19.13;9.40;;;;;;;;;;6240543;28;20047;-78
2023/08/05 03:40:50;;;;;;;21.80;9.05;;;;;;;;;;6253809;28;20120;-79
2023/08/05 03:43:52;;;;;;;20.45;8.60;;;;;;;;;;6235671;28;20049;-78
2023/08/05 03:46:54;;;;;;;26.23;8.98;;;;;;;;;;6253773;28;20047;-79
2023/08/05 03:49:56;;;;;;;19.58;8.43;;;;;;;;;;6236304;28;21620;-78
2023/08/05 03:52:58;;;;;;;18.10;9.18;;;;;;;;;;6233860;28;20131;-78
2023/08/05 03:55:59;;;;;;;23.27;9.88;;;;;;;;;;6253300;28;20048;-78
2023/08/05 03:59:01;;;;;;;21.98;9.20;;;;;;;;;;6248896;28;20047;-78
2023/08/05 04:02:04;;;;;;;19.52;9.75;;;;;;;;;;6236396;28;20044;-77
2023/08/05 04:05:06;;;;;;;34.40;10.15;;;;;;;;;;6256865;28;20056;-77
2023/08/05 04:08:07;;;;;;;19.52;8.57;;;;;;;;;;6253551;28;20053;-76
2023/08/05 04:11:10;;;;;;;20.23;9.73;;;;;;;;;;6239581;28;20080;-78
2023/08/05 04:14:14;;;;;;;20.85;9.55;;;;;;;;;;6246583;28;20088;-76
2023/08/05 04:17:15;;;;;;;21.08;8.90;;;;;;;;;;6230593;28;20056;-76
2023/08/05 04:20:17;;;;;;;17.30;8.40;;;;;;;;;;6236578;28;20049;-77
2023/08/05 04:23:21;;;;;;;20.90;9.00;;;;;;;;;;6236877;28;20455;-77
2023/08/05 04:26:22;;;;;;;;;;;;;;;;;;6234117;28;20099;-76
2023/08/05 04:29:24;;;;;;;18.17;8.27;;;;;;;;;;6243118;28;19921;-76
2023/08/05 04:32:26;;;;;;;21.35;9.23;;;;;;;;;;6253031;28;20176;-77
2023/08/05 04:35:28;;;;;;;19.33;8.77;;;;;;;;;;6238294;28;20060;-77
2023/08/05 04:38:29;;;;;;;19.65;9.45;;;;;;;;;;6247584;28;20048;-77
2023/08/05 04:41:31;;;;;;;15.90;8.82;;;;;;;;;;6261064;28;20549;-76
2023/08/05 04:44:32;;;;;;;26.38;9.20;;;;;;;;;;6271619;28;20056;-76
2023/08/05 04:47:34;;;;;;;18.55;8.05;;;;;;;;;;6266627;28;20069;-78
2023/08/05 04:50:37;;;;;;;20.57;9.27;;;;;;;;;;6256852;28;20384;-79
2023/08/05 04:53:39;;;;;;;20.05;8.30;;;;;;;;;;6260473;28;20451;-78
2023/08/05 04:56:41;;;;;;;23.27;9.88;;;;;;;;;;6257558;28;20122;-78
2023/08/05 04:59:42;;;;;;;27.38;9.60;;;;;;;;;;6250115;28;20046;-77
2023/08/05 05:02:45;;;;;;;24.20;9.75;;;;;;;;;;6262326;28;20041;-77
2023/08/05 05:05:46;;;;;;;23.58;9.07;;;;;;;;;;6257317;28;20052;-78
2023/08/05 05:08:48;;;;;;;25.08;9.52;;;;;;;;;;6255168;28;20045;-76
2023/08/05 05:11:50;;;;;;;19.50;8.07;;;;;;;;;;6231884;28;20052;-77
2023/08/05 05:14:51;;;;;;;22.27;8.05;;;;;;;;;;6260558;28;20048;-76
2023/08/05 05:17:53;;;;;;;17.33;7.88;;;;;;;;;;6256604;28;20091;-76
2023/08/05 05:20:55;;;;;;;16.30;7.80;;;;;;;;;;6229605;28;20061;-77
2023/08/05 05:23:57;;;;;;;15.38;6.80;;;;;;;;;;6254970;28;20068;-76
2023/08/05 05:26:58;;;;;;;16.58;6.75;;;;;;;;;;6261205;28;20662;-78
2023/08/05 05:30:01;;;;;;;16.40;7.85;;;;;;;;;;6251343;28;20122;-75
2023/08/05 05:33:02;;;;;;;15.77;6.87;;;;;;;;;;6261773;28;20461;-76
2023/08/05 05:36:04;;;;;;;14.85;6.18;;;;;;;;;;6259724;28;20065;-76
2023/08/05 05:39:06;;;;;;;15.82;7.43;;;;;;;;;;6243478;28;20056;-77
2023/08/05 05:42:07;;;;;;;14.48;7.20;;;;;;;;;;6243560;28;20073;-75
2023/08/05 05:45:09;;;;;;;15.95;7.15;;;;;;;;;;6245568;28;20503;-77
2023/08/05 05:48:11;;;;;;;14.85;6.93;;;;;;;;;;6235013;28;20048;-77
2023/08/05 05:51:13;;;;;;;15.07;7.03;;;;;;;;;;6248741;28;20139;-77
2023/08/05 05:54:15;;;;;;;14.68;7.10;;;;;;;;;;6242148;28;20504;-77
2023/08/05 05:57:17;;;;;;;14.98;7.38;;;;;;;;;;6238536;28;20052;-77
2023/08/05 06:00:18;;;;;;;13.32;6.38;;;;;;;;;;6249786;28;20044;-75
2023/08/05 06:03:20;;;;;;;12.23;6.05;;;;;;;;;;6246912;28;20068;-77
2023/08/05 06:06:22;;;;;;;11.43;6.28;;;;;;;;;;6247572;28;20126;-77
2023/08/05 06:09:25;;;;;;;13.30;6.07;;;;;;;;;;6252749;28;20155;-76
2023/08/05 06:12:32;;;;;;;12.13;6.20;;;;;;;;;;6237731;28;20071;-77
2023/08/05 06:15:38;;;;;;;14.30;6.90;;;;;;;;;;6247868;28;20060;-77
2023/08/05 06:18:40;;;;;;;13.75;7.28;;;;;;;;;;6246951;28;20619;-77
2023/08/05 06:21:41;;;;;;;13.23;6.72;;;;;;;;;;6256268;28;20044;-76
2023/08/05 06:24:43;;;;;;;14.32;6.90;;;;;;;;;;6251912;28;20613;-77
2023/08/05 06:27:45;;;;;;;15.40;7.40;;;;;;;;;;6251237;28;20071;-78
2023/08/05 06:30:46;;;;;;;15.95;7.25;;;;;;;;;;6253355;28;20071;-77
2023/08/05 06:33:48;;;;;;;13.98;6.78;;;;;;;;;;6234864;28;20072;-77
2023/08/05 06:36:50;;;;;;;12.50;6.07;;;;;;;;;;6253660;28;20593;-77
2023/08/05 06:39:51;;;;;;;16.63;7.97;;;;;;;;;;6234097;28;20053;-77
2023/08/05 06:42:53;;;;;;;16.15;7.95;;;;;;;;;;6229708;28;20132;-76
2023/08/05 06:45:57;;;;;;;14.70;6.85;;;;;;;;;;6238071;28;20045;-75
2023/08/05 06:48:59;;;;;;;12.40;6.75;;;;;;;;;;6252937;28;20539;-77
2023/08/05 06:52:01;;;;;;;12.57;6.63;;;;;;;;;;6249657;28;20499;-77
2023/08/05 06:55:03;;;;;;;11.05;6.47;;;;;;;;;;6254645;28;20248;-77
2023/08/05 06:58:05;;;;;;;10.93;6.20;;;;;;;;;;6252343;28;20495;-75
2023/08/05 07:01:07;;;;;;;9.27;5.90;;;;;;;;;;6253475;28;20062;-77
2023/08/05 07:04:09;;;;;;;10.05;6.05;;;;;;;;;;6234276;28;20045;-77
2023/08/05 07:07:11;;;;;;;9.48;4.97;;;;;;;;;;6254815;28;20037;-77
2023/08/05 07:10:12;;;;;;;11.00;5.72;;;;;;;;;;6237516;28;20053;-77
2023/08/05 07:13:14;;;;;;;11.10;6.50;;;;;;;;;;6252028;28;20045;-75
2023/08/05 07:16:16;;;;;;;10.23;5.90;;;;;;;;;;6250024;28;20087;-75
2023/08/05 07:19:18;;;;;;;7.93;5.35;;;;;;;;;;6251496;28;20115;-76
2023/08/05 07:22:19;;;;;;;10.25;6.10;;;;;;;;;;6247995;28;20072;-76
2023/08/05 07:25:21;;;;;;;11.48;6.32;;;;;;;;;;6250598;28;20418;-76
2023/08/05 07:28:22;;;;;;;9.77;6.18;;;;;;;;;;6249743;28;20036;-77
2023/08/05 07:31:24;;;;;;;8.48;5.40;;;;;;;;;;6248433;28;20180;-77
2023/08/05 07:34:31;;;;;;;9.35;6.15;;;;;;;;;;6254571;28;20364;-78
2023/08/05 07:37:34;;;;;;;7.22;5.30;;;;;;;;;;6252521;28;20149;-76
2023/08/05 07:40:40;;;;;;;7.30;4.95;;;;;;;;;;6254632;28;20479;-78
2023/08/05 07:43:43;;;;;;;8.00;4.55;;;;;;;;;;6250908;28;20059;-77
2023/08/05 07:46:47;;;;;;;7.57;5.13;;;;;;;;;;6257699;28;20499;-77
2023/08/05 07:49:48;;;;;;;10.10;5.30;;;;;;;;;;6254535;28;20528;-77
2023/08/05 07:52:50;;;;;;;8.18;4.38;;;;;;;;;;6249059;28;20048;-77
2023/08/05 07:55:53;;;;;;;8.00;5.07;;;;;;;;;;6253633;28;20048;-77
2023/08/05 07:58:55;;;;;;;;;;;;;;;;;;6233620;28;20046;-77
2023/08/05 08:01:57;;;;;;;7.38;4.85;;;;;;;;;;6252047;28;19982;-76
2023/08/05 08:05:03;;;;;;;6.23;4.60;;;;;;;;;;6249314;28;20049;-77
2023/08/05 08:08:05;;;;;;;6.03;4.63;;;;;;;;;;6252350;28;20044;-77
2023/08/05 08:11:06;;;;;;;6.22;4.38;;;;;;;;;;6250026;28;20066;-76
2023/08/05 08:14:08;;;;;;;6.45;4.82;;;;;;;;;;6246115;28;20124;-76
2023/08/05 08:17:09;;;;;;;9.05;3.95;;;;;;;;;;6246741;28;20045;-77
2023/08/05 08:20:11;;;;;;;6.40;3.85;;;;;;;;;;6254869;28;20088;-77
2023/08/05 08:23:13;;;;;;;4.20;3.80;;;;;;;;;;6253047;28;20495;-75
2023/08/05 08:26:15;;;;;;;5.63;3.88;;;;;;;;;;6235515;28;20077;-77
2023/08/05 08:29:17;;;;;;;3.95;3.55;;;;;;;;;;6248982;28;20055;-77
2023/08/05 08:32:19;;;;;;;3.78;3.35;;;;;;;;;;6250653;28;20041;-77
2023/08/05 08:35:21;;;;;;;4.73;3.67;;;;;;;;;;6256920;28;20056;-76
2023/08/05 08:38:22;;;;;;;4.30;3.00;;;;;;;;;;6249649;28;20048;-76
2023/08/05 08:41:25;;;;;;;3.63;3.28;;;;;;;;;;6273464;28;20454;-76
2023/08/05 08:44:29;;;;;;;3.28;2.63;;;;;;;;;;6268829;28;20045;-78
2023/08/05 08:47:31;;;;;;;4.82;3.13;;;;;;;;;;6254365;28;20041;-78
2023/08/05 08:50:34;;;;;;;3.87;3.17;;;;;;;;;;6248431;28;20430;-75
2023/08/05 08:53:36;;;;;;;3.58;2.97;;;;;;;;;;6248316;28;20448;-78
2023/08/05 08:56:38;;;;;;;3.10;2.80;;;;;;;;;;6255319;28;20045;-77
2023/08/05 08:59:40;;;;;;;4.57;3.10;;;;;;;;;;6249462;28;20068;-77
2023/08/05 09:02:42;;;;;;;3.47;3.00;;;;;;;;;;6243273;28;20038;-77
2023/08/05 09:05:49;;;;;;;3.90;2.63;;;;;;;;;;6250443;28;20492;-78
2023/08/05 09:08:51;;;;;;;3.50;2.83;;;;;;;;;;6251847;28;20050;-78
2023/08/05 09:11:52;;;;;;;3.00;2.65;;;;;;;;;;6253036;28;20050;-79
2023/08/05 09:14:56;;;;;;;2.72;2.53;;;;;;;;;;6243183;28;20037;-77
2023/08/05 09:17:58;;;;;;;2.42;2.20;;;;;;;;;;6256292;28;20064;-77
2023/08/05 09:21:01;;;;;;;2.35;2.15;;;;;;;;;;6258448;28;20041;-78
2023/08/05 09:24:03;;;;;;;4.18;2.28;;;;;;;;;;6249836;28;20545;-77
2023/08/05 09:27:05;;;;;;;2.93;2.60;;;;;;;;;;6257367;28;20052;-77
2023/08/05 09:30:18;;;;;;;2.53;2.30;;;;;;;;;;6254442;28;20206;-77
2023/08/05 09:33:26;;;;;;;;;;;;;;;;;;6253444;28;20100;-78
2023/08/05 09:36:30;;;;;;;3.13;2.63;;;;;;;;;;6236522;28;19927;-77
2023/08/05 09:39:45;;;;;;;3.85;2.75;;;;;;;;;;6241410;28;20045;-77
2023/08/05 09:42:47;;;;;;;4.25;2.80;;;;;;;;;;6256009;28;20351;-77
2023/08/05 09:45:50;;;;;;;;;;;;;;;;;;6261980;28;20056;-75
2023/08/05 09:48:54;;;;;;;4.03;2.97;;;;;;;;;;6271107;28;19936;-73
2023/08/05 09:51:56;;;;;;;4.07;2.90;;;;;;;;;;6253198;28;20429;-77
2023/08/05 09:55:05;;;;;;;5.28;2.80;;;;;;;;;;6249362;28;20041;-76
2023/08/05 09:58:07;;;;;;;3.72;3.08;;;;;;;;;;6245351;28;20053;-77
2023/08/05 10:01:12;;;;;;;3.53;2.53;;;;;;;;;;6250271;28;20052;-77
2023/08/05 10:04:16;;;;;;;2.92;2.40;;;;;;;;;;6247106;28;20045;-76
2023/08/05 10:07:19;;;;;;;3.17;2.55;;;;;;;;;;6244474;28;20419;-78
2023/08/05 10:10:21;;;;;;;3.30;2.15;;;;;;;;;;6257285;28;20056;-77
2023/08/05 10:13:23;;;;;;;4.47;2.40;;;;;;;;;;6255559;28;21299;-77
2023/08/05 10:16:25;;;;;;;2.38;2.17;;;;;;;;;;6258557;28;20436;-78
2023/08/05 10:19:31;;;;;;;2.25;1.83;;;;;;;;;;6259678;28;20057;-76
2023/08/05 10:22:32;;;;;;;4.18;2.28;;;;;;;;;;6256011;28;20056;-77
2023/08/05 10:25:42;;;;;;;2.80;2.40;;;;;;;;;;6244385;28;20057;-77
2023/08/05 10:28:44;;;;;;;2.80;2.17;;;;;;;;;;6241658;28;20050;-77
2023/08/05 10:31:47;;;;;;;2.58;2.10;;;;;;;;;;6257365;28;20090;-78
2023/08/05 10:35:23;;;;;;;3.13;2.47;;;;;;;;;;6256939;28;20041;-76
2023/08/05 10:38:25;;;;;;;2.60;2.22;;;;;;;;;;6259518;28;20041;-77
2023/08/05 10:41:34;;;;;;;2.40;2.20;;;;;;;;;;6256436;28;20060;-76
2023/08/05 10:44:37;;;;;;;3.95;2.80;;;;;;;;;;6240206;28;20498;-77
2023/08/05 10:47:46;;;;;;;2.40;2.20;;;;;;;;;;6254411;28;20522;-78
2023/08/05 10:50:48;;;;;;;4.22;2.30;;;;;;;;;;6251328;28;20053;-78
2023/08/05 10:53:55;;;;;;;3.08;2.40;;;;;;;;;;6254619;28;20064;-77
2023/08/05 10:56:57;;;;;;;2.50;2.30;;;;;;;;;;6251439;28;20045;-77
2023/08/05 11:00:00;;;;;;;3.42;2.80;;;;;;;;;;6252832;28;20052;-77
2023/08/05 11:03:29;;;;;;;2.83;2.15;;;;;;;;;;6254593;28;20045;-76
2023/08/05 11:06:37;;;;;;;3.28;2.30;;;;;;;;;;6250089;28;20044;-80
2023/08/05 11:09:40;;;;;;;2.80;2.30;;;;;;;;;;6249849;28;20091;-78
2023/08/05 11:12:42;;;;;;;2.80;2.10;;;;;;;;;;6254086;28;20062;-77
2023/08/05 11:16:12;;;;;;;2.28;2.00;;;;;;;;;;6255329;28;20045;-78
2023/08/05 11:19:17;;;;;;;2.35;2.15;;;;;;;;;;6248574;28;20046;-78
2023/08/05 11:22:29;;;;;;;3.25;1.95;;;;;;;;;;6250472;28;20064;-79
2023/08/05 11:25:30;;;;;;;2.40;2.20;;;;;;;;;;6239883;28;20056;-78
2023/08/05 11:28:32;;;;;;;2.75;2.15;;;;;;;;;;6249256;28;20573;-78
2023/08/05 11:31:35;;;;;;;3.45;2.20;;;;;;;;;;6254963;28;20040;-79
2023/08/05 11:34:37;;;;;;;2.63;1.90;;;;;;;;;;6258444;28;20521;-79
2023/08/05 11:37:38;;;;;;;2.90;2.22;;;;;;;;;;6237967;28;20077;-79
2023/08/05 11:40:42;;;;;;;3.08;1.90;;;;;;;;;;6248037;28;20053;-79
2023/08/05 11:43:44;;;;;;;2.70;2.25;;;;;;;;;;6256692;28;20507;-79
2023/08/05 11:46:46;;;;;;;2.67;2.00;;;;;;;;;;6251933;28;20117;-78
2023/08/05 11:50:00;;;;;;;1.98;1.77;;;;;;;;;;6236659;28;20045;-78
2023/08/05 11:53:05;;;;;;;1.97;1.77;;;;;;;;;;6246601;28;20049;-78
2023/08/05 11:56:09;;;;;;;1.73;1.55;;;;;;;;;;6255562;28;20049;-78
2023/08/05 11:59:13;;;;;;;1.57;1.47;;;;;;;;;;6247674;28;20420;-78
2023/08/05 12:02:16;;;;;;;2.03;1.85;;;;;;;;;;6249622;28;20041;-76
2023/08/05 12:05:19;;;;;;;2.35;1.90;;;;;;;;;;6251327;28;20045;-78
2023/08/05 12:08:38;;;;;;;1.70;1.60;;;;;;;;;;6214888;28;20392;-78
2023/08/05 12:11:46;;;;;;;2.67;1.67;;;;;;;;;;6251510;28;20041;-76
2023/08/05 12:14:48;;;;;;;2.00;1.73;;;;;;;;;;6250620;28;20045;-77
2023/08/05 12:17:52;;;;;;;3.80;2.00;;;;;;;;;;6253931;28;20048;-78
2023/08/05 12:20:54;;;;;;;1.80;1.70;;;;;;;;;;6250957;28;20145;-78
2023/08/05 12:23:55;;;;;;;2.07;1.80;;;;;;;;;;6233676;28;20423;-77
2023/08/05 12:26:57;;;;;;;1.98;1.77;;;;;;;;;;6257839;28;20049;-77
2023/08/05 12:29:59;;;;;;;1.90;1.70;;;;;;;;;;6252772;28;20045;-78
2023/08/05 12:33:02;;;;;;;2.03;1.83;;;;;;;;;;6252475;28;20597;-78
2023/08/05 12:36:06;;;;;;;2.10;1.90;;;;;;;;;;6253356;28;20133;-76
2023/08/05 12:39:08;;;;;;;1.87;1.77;;;;;;;;;;6274918;28;20056;-75
2023/08/05 12:42:09;;;;;;;3.13;2.00;;;;;;;;;;6259737;28;20056;-78
2023/08/05 12:45:11;;;;;;;3.33;2.20;;;;;;;;;;6241621;28;20533;-78
2023/08/05 12:48:13;;;;;;;2.83;2.45;;;;;;;;;;6259361;28;20068;-78
2023/08/05 12:51:14;;;;;;;3.47;2.38;;;;;;;;;;6258239;28;20064;-76
2023/08/05 12:54:16;;;;;;;3.33;2.63;;;;;;;;;;6233841;28;20045;-78
2023/08/05 12:57:18;;;;;;;3.10;2.80;;;;;;;;;;6256897;28;20049;-78
2023/08/05 13:00:19;;;;;;;2.67;2.47;;;;;;;;;;6221291;28;20049;-78
2023/08/05 13:03:21;;;;;;;3.47;2.60;;;;;;;;;;6259213;28;20056;-77
2023/08/05 13:06:23;;;;;;;4.22;2.78;;;;;;;;;;6258932;28;20521;-76
2023/08/05 13:09:24;;;;;;;3.45;3.10;;;;;;;;;;6259945;28;20045;-75
2023/08/05 13:12:26;;;;;;;3.30;3.00;;;;;;;;;;6259213;28;20049;-78
2023/08/05 13:15:28;;;;;;;2.95;2.65;;;;;;;;;;6256085;28;20503;-79
2023/08/05 13:18:29;;;;;;;4.22;3.00;;;;;;;;;;6258675;28;20055;-79
2023/08/05 13:21:31;;;;;;;4.45;3.33;;;;;;;;;;6242574;28;20045;-79
2023/08/05 13:24:33;;;;;;;4.10;3.17;;;;;;;;;;6259643;28;20074;-78
2023/08/05 13:27:36;;;;;;;4.13;3.55;;;;;;;;;;6241992;28;20050;-78
2023/08/05 13:30:37;;;;;;;4.78;3.33;;;;;;;;;;6256516;28;20072;-80
2023/08/05 13:33:40;;;;;;;4.88;3.55;;;;;;;;;;6259923;28;20110;-78
2023/08/05 13:36:42;;;;;;;5.90;3.38;;;;;;;;;;6248700;28;20041;-76
2023/08/05 13:39:50;;;;;;;3.50;3.20;;;;;;;;;;6257263;28;20419;-78
2023/08/05 13:42:51;;;;;;;5.43;4.05;;;;;;;;;;6258162;28;20044;-79
2023/08/05 13:45:55;;;;;;;4.38;3.92;;;;;;;;;;6259346;28;20174;-77
2023/08/05 13:48:57;;;;;;;3.70;3.40;;;;;;;;;;6257142;28;20045;-76
2023/08/05 13:51:59;;;;;;;4.30;3.28;;;;;;;;;;6256523;28;20127;-77
2023/08/05 13:55:01;;;;;;;5.43;3.80;;;;;;;;;;6252161;28;20045;-77
2023/08/05 13:58:03;;;;;;;6.78;3.90;;;;;;;;;;6246915;28;20045;-77
2023/08/05 14:01:04;;;;;;;4.78;3.70;;;;;;;;;;6277895;28;20044;-78
2023/08/05 14:04:06;;;;;;;5.33;3.40;;;;;;;;;;6259626;28;20128;-78
2023/08/05 14:07:08;;;;;;;4.22;3.60;;;;;;;;;;6255631;28;20530;-78
2023/08/05 14:10:10;;;;;;;4.13;3.72;;;;;;;;;;6257030;28;20102;-78
2023/08/05 14:13:11;;;;;;;4.05;3.30;;;;;;;;;;6256220;28;20061;-77
2023/08/05 14:16:13;;;;;;;4.60;3.30;;;;;;;;;;6249406;28;20123;-78
2023/08/05 14:19:15;;;;;;;4.10;3.70;;;;;;;;;;6254297;28;20063;-76
2023/08/05 14:22:17;;;;;;;4.23;3.20;;;;;;;;;;6255238;28;20046;-77
2023/08/05 14:25:19;;;;;;;;;;;;;;;;;;6254635;28;20110;-77
2023/08/05 14:28:22;;;;;;;3.47;3.00;;;;;;;;;;6246041;28;20000;-77
2023/08/05 14:31:25;;;;;;;3.92;2.90;;;;;;;;;;6252087;28;20523;-78
2023/08/05 14:34:26;;;;;;;4.03;3.10;;;;;;;;;;6255623;28;20041;-76
2023/08/05 14:37:28;;;;;;;4.10;2.97;;;;;;;;;;6243445;28;20049;-78
2023/08/05 14:40:34;;;;;;;3.17;2.67;;;;;;;;;;6252704;28;20515;-77
2023/08/05 14:43:36;;;;;;;3.30;2.78;;;;;;;;;;6254626;28;20057;-78
2023/08/05 14:46:38;;;;;;;3.20;2.83;;;;;;;;;;6255725;28;20056;-78
2023/08/05 14:49:39;;;;;;;2.65;2.45;;;;;;;;;;6249669;28;20576;-78
2023/08/05 14:52:41;;;;;;;2.40;2.20;;;;;;;;;;6254419;28;20044;-79
2023/08/05 14:55:42;;;;;;;2.00;1.85;;;;;;;;;;6226152;28;20133;-79
2023/08/05 14:58:44;;;;;;;3.67;2.40;;;;;;;;;;6248226;28;20423;-78
2023/08/05 15:01:46;;;;;;;4.35;2.10;;;;;;;;;;6246663;28;20099;-78
2023/08/05 15:04:47;;;;;;;2.60;2.40;;;;;;;;;;6258160;28;20171;-77
2023/08/05 15:07:49;;;;;;;4.65;2.50;;;;;;;;;;6256216;28;20068;-77
2023/08/05 15:10:58;;;;;;;3.58;2.00;;;;;;;;;;6239486;28;20056;-77
2023/08/05 15:14:00;;;;;;;2.53;2.10;;;;;;;;;;6243553;28;20066;-78
2023/08/05 15:17:01;;;;;;;2.70;2.13;;;;;;;;;;6255489;28;20071;-77
2023/08/05 15:20:04;;;;;;;2.78;2.30;;;;;;;;;;6233999;28;20067;-76
2023/08/05 15:23:05;;;;;;;2.58;2.30;;;;;;;;;;6249276;28;20037;-76
2023/08/05 15:26:13;;;;;;;2.70;2.03;;;;;;;;;;6245262;28;20045;-77
2023/08/05 15:29:17;;;;;;;2.03;1.92;;;;;;;;;;6259698;28;20064;-78
2023/08/05 15:32:19;;;;;;;3.72;2.22;;;;;;;;;;6245227;28;20499;-77
2023/08/05 15:35:21;;;;;;;2.53;2.33;;;;;;;;;;6270459;28;20037;-75
2023/08/05 15:38:22;;;;;;;2.25;2.03;;;;;;;;;;6281545;28;20526;-76
2023/08/05 15:41:24;;;;;;;2.90;2.13;;;;;;;;;;6281741;28;20059;-75
2023/08/05 15:44:26;;;;;;;2.25;1.80;;;;;;;;;;6276008;28;20063;-75
2023/08/05 15:47:27;;;;;;;2.45;1.90;;;;;;;;;;6266234;28;20049;-77
2023/08/05 15:50:31;;;;;;;2.90;2.22;;;;;;;;;;6261701;28;20036;-75
2023/08/05 15:53:32;;;;;;;3.88;2.00;;;;;;;;;;6279202;28;20043;-76
2023/08/05 15:56:34;;;;;;;2.38;2.05;;;;;;;;;;6278194;28;20044;-77
2023/08/05 15:59:36;;;;;;;2.22;1.95;;;;;;;;;;6281694;28;20052;-76
2023/08/05 16:02:37;;;;;;;2.45;2.25;;;;;;;;;;6277921;28;20049;-78
2023/08/05 16:05:39;;;;;;;2.75;1.98;;;;;;;;;;6277618;28;20048;-75
2023/08/05 16:08:40;;;;;;;2.00;1.80;;;;;;;;;;6271949;28;20071;-78
2023/08/05 16:11:42;;;;;;;1.85;1.65;;;;;;;;;;6251085;28;20053;-78
2023/08/05 16:14:51;;;;;;;2.63;1.67;;;;;;;;;;6261917;28;20156;-78
2023/08/05 16:17:52;;;;;;;1.98;1.70;;;;;;;;;;6243201;28;20053;-78
2023/08/05 16:20:54;;;;;;;4.30;1.77;;;;;;;;;;6267509;28;20127;-76
2023/08/05 16:24:01;;;;;;;2.53;1.80;;;;;;;;;;6261216;28;20048;-77
2023/08/05 16:27:04;;;;;;;5.43;2.15;;;;;;;;;;6260355;28;20041;-77
2023/08/05 16:30:07;;;;;;;5.78;2.50;;;;;;;;;;6270990;28;20067;-75
2023/08/05 16:33:09;;;;;;;3.22;2.60;;;;;;;;;;6261818;28;20028;-78
2023/08/05 16:36:11;;;;;;;5.30;2.60;;;;;;;;;;6259374;28;20041;-77
2023/08/05 16:39:12;;;;;;;3.58;2.88;;;;;;;;;;6245525;28;20047;-79
2023/08/05 16:42:14;;;;;;;4.88;4.10;;;;;;;;;;6262536;28;20045;-77
2023/08/05 16:45:16;;;;;;;4.00;2.80;;;;;;;;;;6243546;28;20521;-78
2023/08/05 16:48:17;;;;;;;3.78;3.40;;;;;;;;;;6257677;28;20041;-77
2023/08/05 16:51:19;;;;;;;3.42;2.85;;;;;;;;;;6258516;28;20044;-75
2023/08/05 16:54:21;;;;;;;3.75;2.60;;;;;;;;;;6259084;28;20043;-77
2023/08/05 16:57:22;;;;;;;4.03;3.00;;;;;;;;;;6244913;28;20056;-80
2023/08/05 17:00:24;;;;;;;8.32;5.00;;;;;;;;;;6256688;28;20041;-78
2023/08/05 17:03:26;;;;;;;4.65;3.75;;;;;;;;;;6260915;28;20053;-76
2023/08/05 17:06:27;;;;;;;5.50;3.60;;;;;;;;;;6262155;28;20049;-78
2023/08/05 17:09:29;;;;;;;4.18;3.08;;;;;;;;;;6262043;28;20064;-79
2023/08/05 17:12:31;;;;;;;4.20;3.13;;;;;;;;;;6249411;28;20485;-76
2023/08/05 17:15:32;;;;;;;3.17;2.70;;;;;;;;;;6263764;28;20048;-77
2023/08/05 17:18:34;;;;;;;3.53;3.08;;;;;;;;;;6260920;28;20044;-79
2023/08/05 17:21:36;;;;;;;3.22;2.78;;;;;;;;;;6243681;28;20060;-78
2023/08/05 17:24:38;;;;;;;4.22;2.90;;;;;;;;;;6268525;28;20418;-78
2023/08/05 17:27:41;;;;;;;3.10;2.80;;;;;;;;;;6266673;28;20045;-76
2023/08/05 17:30:42;;;;;;;8.05;4.13;;;;;;;;;;6246184;28;20073;-78
2023/08/05 17:33:46;;;;;;;4.03;3.40;;;;;;;;;;6256337;28;20051;-79
2023/08/05 17:36:47;;;;;;;5.35;4.18;;;;;;;;;;6264288;28;20048;-78
2023/08/05 17:39:49;;;;;;;4.20;3.75;;;;;;;;;;6263233;28;20046;-76
2023/08/05 17:42:51;;;;;;;5.55;3.83;;;;;;;;;;6259666;28;20046;-78
2023/08/05 17:45:57;;;;;;;4.57;4.07;;;;;;;;;;6261621;28;20037;-78
2023/08/05 17:48:59;;;;;;;5.15;4.65;;;;;;;;;;6269852;28;20458;-78
2023/08/05 17:52:01;;;;;;;5.60;4.20;;;;;;;;;;6259489;28;20041;-77
2023/08/05 17:55:03;;;;;;;5.10;3.90;;;;;;;;;;6257742;28;20042;-77
2023/08/05 17:58:04;;;;;;;4.35;3.60;;;;;;;;;;6264195;28;20048;-76
2023/08/05 18:01:06;;;;;;;7.53;4.57;;;;;;;;;;6252472;28;20045;-78
2023/08/05 18:04:08;;;;;;;12.82;8.38;;;;;;;;;;6247231;28;20071;-78
2023/08/05 18:07:10;;;;;;;7.43;5.32;;;;;;;;;;6269927;28;20117;-77
2023/08/05 18:10:11;;;;;;;7.88;5.30;;;;;;;;;;6273230;28;20090;-76
2023/08/05 18:13:13;;;;;;;5.70;4.97;;;;;;;;;;6272440;28;20048;-76